createdAt,value
2018-12-06T00:01:55.889Z,87.20
2018-12-06T00:04:25.343Z,87.48
2018-12-06T00:06:54.184Z,87.50
2018-12-06T00:09:23.001Z,87.65
2018-12-06T00:11:52.795Z,87.75
2018-12-06T00:14:21.595Z,87.42
2018-12-06T00:16:59.116Z,87.98
2018-12-06T00:19:27.900Z,87.68
2018-12-06T00:21:56.810Z,87.96
2018-12-06T00:24:25.623Z,87.68
2018-12-06T00:26:54.487Z,87.79
2018-12-06T00:29:23.320Z,87.74
2018-12-06T00:31:52.878Z,88.06
2018-12-06T00:34:21.710Z,88.02
2018-12-06T00:36:50.506Z,87.94
2018-12-06T00:39:19.315Z,87.86
2018-12-06T00:41:48.131Z,87.93
2018-12-06T00:44:16.934Z,87.83
2018-12-06T00:46:45.764Z,87.95
2018-12-06T00:49:15.499Z,87.75
2018-12-06T00:51:44.584Z,87.89
2018-12-06T00:54:13.410Z,87.69
2018-12-06T00:56:42.247Z,87.91
2018-12-06T00:59:14.722Z,87.98
2018-12-06T01:01:43.599Z,88.23
2018-12-06T01:04:12.389Z,88.17
2018-12-06T01:06:41.208Z,88.09
2018-12-06T01:09:10.013Z,87.99
2018-12-06T01:11:38.833Z,88.02
2018-12-06T01:14:07.637Z,87.95
2018-12-06T01:16:36.675Z,87.90
2018-12-06T01:19:06.500Z,88.10
2018-12-06T01:21:35.732Z,88.18
2018-12-06T01:24:05.075Z,87.95
2018-12-06T01:26:33.885Z,88.24
2018-12-06T01:29:02.676Z,88.12
2018-12-06T01:31:33.562Z,88.48
2018-12-06T01:34:03.027Z,88.45
2018-12-06T01:36:33.236Z,88.82
2018-12-06T01:39:02.130Z,88.85
2018-12-06T01:41:31.500Z,89.07
2018-12-06T01:44:00.619Z,89.18
2018-12-06T01:46:29.431Z,89.41
2018-12-06T01:48:58.327Z,89.27
2018-12-06T01:51:27.931Z,89.79
2018-12-06T01:53:56.755Z,89.55
2018-12-06T01:56:25.570Z,89.30
2018-12-06T01:58:55.044Z,89.74
2018-12-06T02:01:23.948Z,90.15
2018-12-06T02:03:52.756Z,90.03
2018-12-06T02:06:21.592Z,90.18
2018-12-06T02:08:51.111Z,90.22
2018-12-06T02:11:19.916Z,90.67
2018-12-06T02:13:48.718Z,90.35
2018-12-06T02:16:17.668Z,90.69
2018-12-06T02:18:46.511Z,90.69
2018-12-06T02:21:15.326Z,90.70
2018-12-06T02:23:44.191Z,90.45
2018-12-06T02:26:14.685Z,90.58
2018-12-06T02:28:43.538Z,90.51
2018-12-06T02:31:12.652Z,90.56
2018-12-06T02:33:42.142Z,90.36
2018-12-06T02:36:11.673Z,90.40
2018-12-06T02:38:40.489Z,90.54
2018-12-06T02:41:09.307Z,90.78
2018-12-06T02:43:38.101Z,90.81
2018-12-06T02:46:06.936Z,90.67
2018-12-06T02:48:35.727Z,90.88
2018-12-06T02:51:04.992Z,90.78
2018-12-06T02:53:33.795Z,90.78
2018-12-06T02:56:02.601Z,90.78
2018-12-06T02:58:32.136Z,90.99
2018-12-06T03:01:00.947Z,90.67
2018-12-06T03:03:30.067Z,90.83
2018-12-06T03:05:58.899Z,90.89
2018-12-06T03:08:28.248Z,90.71
2018-12-06T03:10:57.052Z,90.80
2018-12-06T03:13:25.882Z,90.64
2018-12-06T03:15:54.896Z,90.54
2018-12-06T03:18:23.704Z,90.45
2018-12-06T03:20:52.518Z,90.50
2018-12-06T03:23:21.372Z,90.26
2018-12-06T03:25:50.235Z,90.69
2018-12-06T03:28:19.027Z,90.92
2018-12-06T03:30:48.025Z,91.03
2018-12-06T03:33:16.871Z,90.73
2018-12-06T03:35:45.698Z,90.75
2018-12-06T03:38:14.498Z,90.87
2018-12-06T03:40:44.527Z,90.50
2018-12-06T03:43:13.373Z,90.67
2018-12-06T03:45:42.202Z,90.45
2018-12-06T03:48:11.601Z,90.59
2018-12-06T03:50:40.535Z,90.63
2018-12-06T03:53:10.000Z,90.44
2018-12-06T03:55:38.847Z,90.79
2018-12-06T03:58:07.652Z,91.19
2018-12-06T04:00:36.483Z,90.85
2018-12-06T04:03:05.520Z,90.92
2018-12-06T04:05:35.044Z,91.27
2018-12-06T04:08:03.852Z,91.30
2018-12-06T04:10:32.725Z,91.25
2018-12-06T04:13:01.695Z,91.26
2018-12-06T04:15:30.573Z,91.38
2018-12-06T04:17:59.384Z,91.17
2018-12-06T04:20:28.687Z,91.32
2018-12-06T04:22:58.157Z,91.15
2018-12-06T04:25:26.959Z,91.16
2018-12-06T04:27:55.826Z,91.12
2018-12-06T04:30:25.106Z,91.26
2018-12-06T04:32:53.924Z,91.47
2018-12-06T04:35:22.735Z,91.51
2018-12-06T04:37:51.554Z,91.71
2018-12-06T04:40:20.364Z,91.59
2018-12-06T04:42:49.210Z,91.56
2018-12-06T04:45:18.039Z,91.57
2018-12-06T04:47:47.563Z,91.43
2018-12-06T04:50:16.365Z,91.39
2018-12-06T04:52:45.205Z,91.43
2018-12-06T04:55:14.018Z,91.50
2018-12-06T04:57:43.549Z,91.44
2018-12-06T05:00:12.387Z,91.47
2018-12-06T05:02:41.187Z,91.34
2018-12-06T05:05:10.545Z,91.44
2018-12-06T05:07:39.788Z,91.39
2018-12-06T05:10:08.688Z,91.43
2018-12-06T05:12:37.521Z,91.56
2018-12-06T05:15:06.351Z,91.42
2018-12-06T05:17:35.989Z,91.39
2018-12-06T05:20:05.253Z,91.29
2018-12-06T05:22:34.055Z,91.42
2018-12-06T05:25:02.882Z,91.58
2018-12-06T05:27:31.700Z,91.62
2018-12-06T05:30:01.479Z,91.70
2018-12-06T05:32:31.366Z,91.62
2018-12-06T05:35:00.190Z,91.57
2018-12-06T05:37:29.033Z,91.45
2018-12-06T05:40:01.115Z,91.63
2018-12-06T05:42:31.789Z,91.66
2018-12-06T05:45:00.622Z,91.67
2018-12-06T05:47:29.430Z,91.79
2018-12-06T05:49:58.275Z,91.76
2018-12-06T05:52:27.112Z,92.19
2018-12-06T05:54:55.959Z,92.37
2018-12-06T05:57:24.792Z,92.25
2018-12-06T05:59:53.613Z,92.73
2018-12-06T06:02:37.785Z,92.12
2018-12-06T06:05:15.125Z,92.25
2018-12-06T06:07:43.963Z,92.30
2018-12-06T06:10:13.328Z,92.47
2018-12-06T06:12:42.826Z,92.35
2018-12-06T06:15:11.695Z,92.73
2018-12-06T06:17:41.203Z,92.62
2018-12-06T06:20:12.769Z,92.49
2018-12-06T06:22:41.612Z,92.60
2018-12-06T06:25:10.516Z,92.54
2018-12-06T06:27:39.952Z,92.42
2018-12-06T06:30:08.855Z,92.79
2018-12-06T06:32:38.335Z,92.61
2018-12-06T06:35:08.275Z,92.87
2018-12-06T06:37:41.408Z,92.52
2018-12-06T06:40:10.188Z,92.42
2018-12-06T06:42:39.061Z,92.44
2018-12-06T06:45:07.889Z,92.39
2018-12-06T06:47:36.710Z,92.48
2018-12-06T06:50:05.612Z,92.69
2018-12-06T06:52:34.443Z,92.27
2018-12-06T06:55:03.312Z,92.56
2018-12-06T06:57:33.111Z,92.25
2018-12-06T07:00:01.931Z,92.27
2018-12-06T07:02:30.747Z,92.43
2018-12-06T07:04:59.559Z,92.61
2018-12-06T07:07:28.914Z,92.52
2018-12-06T07:09:57.708Z,92.54
2018-12-06T07:12:26.535Z,92.56
2018-12-06T07:14:55.338Z,92.77
2018-12-06T07:17:27.699Z,92.73
2018-12-06T07:19:56.556Z,92.30
2018-12-06T07:22:25.397Z,92.65
2018-12-06T07:24:54.220Z,92.58
2018-12-06T07:27:23.039Z,92.68
2018-12-06T07:29:52.121Z,92.77
2018-12-06T07:32:20.959Z,92.57
2018-12-06T07:34:49.849Z,92.62
2018-12-06T07:37:18.664Z,92.78
2018-12-06T07:39:47.504Z,92.52
2018-12-06T07:42:16.377Z,92.74
2018-12-06T07:44:45.241Z,92.67
2018-12-06T07:47:14.051Z,92.94
2018-12-06T07:49:42.951Z,92.83
2018-12-06T07:52:12.761Z,92.98
2018-12-06T07:54:41.706Z,92.77
2018-12-06T07:57:10.861Z,93.14
2018-12-06T07:59:40.276Z,93.08
2018-12-06T08:02:10.273Z,93.22
2018-12-06T08:04:39.260Z,92.82
2018-12-06T08:07:08.119Z,92.96
2018-12-06T08:09:37.862Z,92.88
2018-12-06T08:12:07.359Z,92.93
2018-12-06T08:14:36.156Z,92.60
2018-12-06T08:17:04.993Z,92.94
2018-12-06T08:19:34.132Z,92.89
2018-12-06T08:22:03.914Z,92.93
2018-12-06T08:24:34.165Z,92.94
2018-12-06T08:27:03.074Z,92.80
2018-12-06T08:29:31.872Z,92.90
2018-12-06T08:32:02.377Z,92.67
2018-12-06T08:34:32.767Z,92.78
2018-12-06T08:37:02.108Z,93.18
2018-12-06T08:39:30.949Z,92.79
2018-12-06T08:41:59.799Z,92.70
2018-12-06T08:44:28.627Z,92.51
2018-12-06T08:46:57.450Z,92.65
2018-12-06T08:49:26.297Z,92.82
2018-12-06T08:51:55.237Z,92.39
2018-12-06T08:54:24.068Z,92.75
2018-12-06T08:56:52.878Z,92.52
2018-12-06T08:59:22.728Z,92.54
2018-12-06T09:01:51.548Z,92.34
2018-12-06T09:04:20.350Z,92.57
2018-12-06T09:06:49.184Z,92.38
2018-12-06T09:09:17.999Z,92.52
2018-12-06T09:11:46.824Z,92.19
2018-12-06T09:14:15.636Z,92.37
2018-12-06T09:16:44.504Z,92.02
2018-12-06T09:19:14.749Z,92.70
2018-12-06T09:21:42.167Z,92.17
2018-12-06T09:24:11.001Z,92.09
2018-12-06T09:26:39.827Z,92.27
2018-12-06T09:29:08.629Z,92.27
2018-12-06T09:31:37.432Z,92.02
2018-12-06T09:34:07.229Z,92.10
2018-12-06T09:36:37.286Z,92.07
2018-12-06T09:39:09.256Z,92.17
2018-12-06T09:41:38.175Z,92.11
2018-12-06T09:44:07.057Z,91.96
2018-12-06T09:46:35.871Z,91.60
2018-12-06T09:49:05.085Z,91.76
2018-12-06T09:51:33.916Z,91.74
2018-12-06T09:54:02.746Z,91.96
2018-12-06T09:56:31.642Z,91.52
2018-12-06T09:59:01.716Z,91.53
2018-12-06T10:01:30.550Z,91.47
2018-12-06T10:03:59.368Z,91.75
2018-12-06T10:06:28.184Z,91.47
2018-12-06T10:08:57.007Z,91.21
2018-12-06T10:11:25.823Z,91.36
2018-12-06T10:13:54.631Z,90.95
2018-12-06T10:16:24.852Z,90.84
2018-12-06T10:18:53.672Z,90.69
2018-12-06T10:21:22.516Z,90.82
2018-12-06T10:23:51.358Z,90.88
2018-12-06T10:26:20.292Z,90.75
2018-12-06T10:28:49.103Z,90.87
2018-12-06T10:31:17.928Z,90.57
2018-12-06T10:33:46.752Z,90.80
2018-12-06T10:36:16.375Z,90.81
2018-12-06T10:38:45.241Z,90.83
2018-12-06T10:41:14.108Z,91.08
2018-12-06T10:43:43.031Z,90.96
2018-12-06T10:46:11.886Z,91.23
2018-12-06T10:48:40.704Z,90.77
2018-12-06T10:51:20.964Z,90.97
2018-12-06T10:53:50.048Z,90.95
2018-12-06T10:56:19.601Z,90.66
2018-12-06T10:58:48.403Z,90.75
2018-12-06T11:01:18.799Z,90.58
2018-12-06T11:03:52.921Z,90.91
2018-12-06T11:06:21.735Z,90.71
2018-12-06T11:08:50.603Z,90.64
2018-12-06T11:11:19.386Z,90.48
2018-12-06T11:13:48.218Z,90.79
2018-12-06T11:16:17.058Z,90.54
2018-12-06T11:18:45.952Z,90.61
2018-12-06T11:21:14.820Z,90.47
2018-12-06T11:23:43.704Z,90.28
2018-12-06T11:26:12.608Z,89.90
2018-12-06T11:28:41.353Z,90.07
2018-12-06T11:31:10.200Z,89.58
2018-12-06T11:33:39.298Z,89.62
2018-12-06T11:36:08.097Z,89.87
2018-12-06T11:38:36.978Z,89.43
2018-12-06T11:41:05.815Z,89.29
2018-12-06T11:43:34.663Z,89.10
2018-12-06T11:46:03.493Z,88.95
2018-12-06T11:48:32.328Z,89.05
2018-12-06T11:51:01.140Z,89.02
2018-12-06T11:53:30.011Z,88.73
2018-12-06T11:55:58.881Z,88.69
2018-12-06T11:58:27.780Z,88.92
2018-12-06T12:00:56.592Z,88.57
2018-12-06T12:03:25.482Z,88.74
2018-12-06T12:05:58.509Z,88.59
2018-12-06T12:08:23.123Z,88.46
2018-12-06T12:10:51.992Z,88.56
2018-12-06T12:13:20.828Z,88.20
2018-12-06T12:15:49.683Z,88.37
2018-12-06T12:18:18.531Z,88.49
2018-12-06T12:20:47.363Z,88.04
2018-12-06T12:23:16.282Z,88.68
2018-12-06T12:25:45.097Z,88.68
2018-12-06T12:28:13.973Z,88.29
2018-12-06T12:30:42.912Z,88.42
2018-12-06T12:33:11.724Z,88.34
2018-12-06T12:35:41.205Z,88.33
2018-12-06T12:38:10.001Z,87.91
2018-12-06T12:40:38.816Z,87.91
2018-12-06T12:43:07.672Z,87.99
2018-12-06T12:45:36.527Z,87.33
2018-12-06T12:48:05.400Z,87.54
2018-12-06T12:50:34.255Z,87.36
2018-12-06T12:53:03.583Z,87.54
2018-12-06T12:55:32.431Z,87.18
2018-12-06T12:58:01.384Z,87.71
2018-12-06T13:00:30.251Z,87.58
2018-12-06T13:02:59.067Z,87.32
2018-12-06T13:05:27.862Z,86.91
2018-12-06T13:07:56.816Z,86.90
2018-12-06T13:10:25.618Z,86.73
2018-12-06T13:12:54.408Z,86.58
2018-12-06T13:15:23.285Z,86.76
2018-12-06T13:17:52.108Z,86.55
2018-12-06T13:20:20.948Z,86.28
2018-12-06T13:22:49.829Z,86.68
2018-12-06T13:25:18.631Z,85.99
2018-12-06T13:27:47.488Z,86.33
2018-12-06T13:30:16.343Z,86.57
2018-12-06T13:32:45.256Z,86.84
2018-12-06T13:35:14.030Z,86.42
2018-12-06T13:37:42.929Z,86.79
2018-12-06T13:40:12.337Z,86.58
2018-12-06T13:42:41.172Z,86.62
2018-12-06T13:45:11.016Z,86.57
2018-12-06T13:47:39.797Z,86.44
2018-12-06T13:50:10.720Z,86.53
2018-12-06T13:52:39.624Z,86.53
2018-12-06T13:55:08.441Z,86.71
2018-12-06T13:57:38.157Z,86.74
2018-12-06T14:00:07.980Z,86.68
2018-12-06T14:02:36.791Z,86.65
2018-12-06T14:05:05.637Z,86.53
2018-12-06T14:07:34.492Z,86.64
2018-12-06T14:10:04.040Z,86.24
2018-12-06T14:12:33.503Z,86.43
2018-12-06T14:15:02.299Z,86.60
2018-12-06T14:17:31.107Z,86.45
2018-12-06T14:19:59.962Z,86.54
2018-12-06T14:22:28.805Z,86.53
2018-12-06T14:24:58.603Z,86.40
2018-12-06T14:27:27.644Z,86.67
2018-12-06T14:29:56.495Z,86.55
2018-12-06T14:32:25.299Z,86.64
2018-12-06T14:34:54.164Z,86.56
2018-12-06T14:37:22.978Z,86.60
2018-12-06T14:39:51.864Z,86.50
2018-12-06T14:42:20.804Z,86.61
2018-12-06T14:44:49.853Z,86.44
2018-12-06T14:47:18.648Z,86.63
2018-12-06T14:49:47.472Z,86.78
2018-12-06T14:52:16.313Z,86.79
2018-12-06T14:54:45.365Z,86.90
2018-12-06T14:57:14.216Z,87.07
2018-12-06T14:59:43.166Z,87.04
2018-12-06T15:02:12.047Z,86.96
2018-12-06T15:04:47.929Z,87.29
2018-12-06T15:07:24.267Z,87.37
2018-12-06T15:09:54.190Z,87.52
2018-12-06T15:12:55.480Z,87.69
2018-12-06T15:15:26.080Z,87.97
2018-12-06T15:17:54.971Z,88.09
2018-12-06T15:20:23.793Z,88.39
2018-12-06T15:23:07.855Z,88.18
2018-12-06T15:25:41.768Z,88.38
2018-12-06T15:28:07.918Z,88.35
2018-12-06T15:30:38.732Z,88.66
2018-12-06T15:33:08.753Z,88.59
2018-12-06T15:35:38.197Z,88.92
2018-12-06T15:38:08.128Z,88.78
2018-12-06T15:40:52.776Z,88.74
2018-12-06T15:43:23.717Z,88.52
2018-12-06T15:45:52.767Z,88.65
2018-12-06T15:48:30.630Z,88.92
2018-12-06T15:50:59.485Z,88.93
2018-12-06T15:53:29.291Z,88.82
2018-12-06T15:55:59.339Z,89.17
2018-12-06T15:58:28.125Z,89.27
2018-12-06T16:00:56.977Z,89.51
2018-12-06T16:03:25.837Z,89.12
2018-12-06T16:05:54.655Z,89.06
2018-12-06T16:08:24.670Z,88.89
2018-12-06T16:10:53.500Z,89.27
2018-12-06T16:13:22.350Z,89.33
2018-12-06T16:15:51.146Z,89.28
2018-12-06T16:18:19.963Z,89.55
2018-12-06T16:20:49.786Z,89.58
2018-12-06T16:23:18.644Z,89.39
2018-12-06T16:25:47.475Z,89.43
2018-12-06T16:28:16.361Z,89.53
2018-12-06T16:30:45.260Z,89.40
2018-12-06T16:33:14.139Z,89.88
2018-12-06T16:35:43.159Z,89.76
2018-12-06T16:38:11.937Z,89.80
2018-12-06T16:40:40.781Z,89.67
2018-12-06T16:43:09.591Z,89.97
2018-12-06T16:45:38.396Z,89.83
2018-12-06T16:48:08.589Z,89.89
2018-12-06T16:50:38.806Z,89.88
2018-12-06T16:53:08.123Z,89.79
2018-12-06T16:55:37.623Z,89.89
2018-12-06T16:58:06.484Z,89.88
2018-12-06T17:00:35.336Z,89.82
2018-12-06T17:03:05.379Z,90.04
2018-12-06T17:05:34.214Z,89.88
2018-12-06T17:08:03.055Z,89.95
2018-12-06T17:10:31.985Z,89.68
2018-12-06T17:13:00.792Z,90.10
2018-12-06T17:15:29.680Z,90.14
2018-12-06T17:17:58.531Z,90.03
2018-12-06T17:20:27.352Z,89.71
2018-12-06T17:22:56.399Z,89.95
2018-12-06T17:25:25.216Z,90.21
2018-12-06T17:27:57.825Z,89.89
2018-12-06T17:30:26.696Z,89.95
2018-12-06T17:32:55.671Z,89.98
2018-12-06T17:35:28.491Z,89.84
2018-12-06T17:37:57.912Z,90.10
2018-12-06T17:40:28.261Z,89.99
2018-12-06T17:42:57.124Z,89.84
2018-12-06T17:45:27.019Z,89.96
2018-12-06T17:47:55.977Z,89.78
2018-12-06T17:50:24.831Z,89.78
2018-12-06T17:52:53.728Z,90.15
2018-12-06T17:55:22.565Z,89.61
2018-12-06T17:57:53.114Z,89.71
2018-12-06T18:00:22.884Z,89.84
2018-12-06T18:02:51.760Z,89.90
2018-12-06T18:05:20.604Z,89.62
2018-12-06T18:07:49.425Z,89.67
2018-12-06T18:10:19.244Z,90.04
2018-12-06T18:12:48.092Z,90.17
2018-12-06T18:15:16.983Z,89.68
2018-12-06T18:17:46.313Z,89.89
2018-12-06T18:20:15.234Z,89.99
2018-12-06T18:22:45.075Z,90.04
2018-12-06T18:25:13.944Z,89.66
2018-12-06T18:27:45.051Z,89.84
2018-12-06T18:30:13.879Z,89.94
2018-12-06T18:32:43.896Z,89.74
2018-12-06T18:35:12.707Z,90.02
2018-12-06T18:37:41.540Z,89.64
2018-12-06T18:40:11.338Z,89.76
2018-12-06T18:42:40.197Z,89.31
2018-12-06T18:45:09.040Z,89.67
2018-12-06T18:47:37.927Z,89.34
2018-12-06T18:50:13.209Z,89.11
2018-12-06T18:52:42.011Z,89.07
2018-12-06T18:55:10.916Z,88.97
2018-12-06T18:57:40.852Z,89.06
2018-12-06T19:00:10.954Z,88.83
2018-12-06T19:02:39.823Z,88.74
2018-12-06T19:05:08.661Z,89.05
2018-12-06T19:07:39.405Z,88.73
2018-12-06T19:10:08.255Z,88.51
2018-12-06T19:12:37.136Z,88.75
2018-12-06T19:15:05.971Z,88.64
2018-12-06T19:17:34.873Z,88.31
2018-12-06T19:20:04.691Z,88.49
2018-12-06T19:22:33.533Z,88.67
2018-12-06T19:25:03.339Z,88.37
2018-12-06T19:27:32.151Z,88.51
2018-12-06T19:30:01.692Z,88.46
2018-12-06T19:32:30.524Z,88.24
2018-12-06T19:34:59.712Z,88.37
2018-12-06T19:37:28.520Z,88.34
2018-12-06T19:39:57.392Z,88.33
2018-12-06T19:42:26.339Z,88.41
2018-12-06T19:44:55.198Z,88.61
2018-12-06T19:47:24.100Z,88.28
2018-12-06T19:49:52.974Z,88.22
2018-12-06T19:52:21.816Z,88.36
2018-12-06T19:54:50.638Z,88.14
2018-12-06T19:57:19.451Z,88.06
2018-12-06T19:59:49.092Z,88.07
2018-12-06T20:02:18.544Z,88.38
2018-12-06T20:04:47.373Z,88.05
2018-12-06T20:07:16.283Z,88.34
2018-12-06T20:09:45.116Z,88.22
2018-12-06T20:12:13.991Z,88.24
2018-12-06T20:14:42.826Z,88.14
2018-12-06T20:17:11.661Z,88.33
2018-12-06T20:19:40.468Z,88.68
2018-12-06T20:22:09.287Z,88.59
2018-12-06T20:24:38.327Z,88.77
2018-12-06T20:27:07.315Z,88.96
2018-12-06T20:29:42.705Z,88.95
2018-12-06T20:32:14.619Z,89.14
2018-12-06T20:34:42.688Z,89.03
2018-12-06T20:37:12.769Z,89.72
2018-12-06T20:39:41.612Z,89.85
2018-12-06T20:42:10.432Z,89.68
2018-12-06T20:44:39.292Z,89.81
2018-12-06T20:47:08.191Z,90.01
2018-12-06T20:49:37.016Z,90.45
2018-12-06T20:52:06.875Z,90.07
2018-12-06T20:54:37.539Z,90.26
2018-12-06T20:57:06.424Z,90.01
2018-12-06T20:59:35.315Z,90.43
2018-12-06T21:02:04.130Z,90.18
2018-12-06T21:04:32.956Z,90.06
2018-12-06T21:07:01.780Z,90.40
2018-12-06T21:09:33.149Z,90.47
2018-12-06T21:12:01.945Z,90.37
2018-12-06T21:14:30.861Z,90.53
2018-12-06T21:16:59.737Z,90.16
2018-12-06T21:19:28.572Z,90.65
2018-12-06T21:21:57.409Z,90.77
2018-12-06T21:24:26.328Z,90.56
2018-12-06T21:26:55.175Z,90.50
2018-12-06T21:29:24.497Z,90.50
2018-12-06T21:31:53.338Z,90.64
2018-12-06T21:34:22.291Z,90.82
2018-12-06T21:36:51.349Z,90.94
2018-12-06T21:39:20.258Z,90.82
2018-12-06T21:41:49.520Z,91.06
2018-12-06T21:44:18.364Z,90.87
2018-12-06T21:46:47.424Z,91.43
2018-12-06T21:49:16.244Z,91.28
2018-12-06T21:51:45.079Z,91.12
2018-12-06T21:54:13.913Z,91.38
2018-12-06T21:56:42.784Z,91.13
2018-12-06T21:59:11.609Z,91.31
2018-12-06T22:01:40.458Z,91.25
2018-12-06T22:04:09.340Z,91.63
2018-12-06T22:06:38.174Z,91.36
2018-12-06T22:09:08.256Z,91.12
2018-12-06T22:11:37.128Z,91.19
2018-12-06T22:14:05.953Z,91.46
2018-12-06T22:16:34.798Z,91.07
2018-12-06T22:19:03.610Z,90.99
2018-12-06T22:21:32.430Z,90.95
2018-12-06T22:24:01.283Z,90.92
2018-12-06T22:26:31.499Z,91.20
2018-12-06T22:29:00.624Z,91.14
2018-12-06T22:31:31.503Z,90.87
2018-12-06T22:34:00.334Z,91.33
2018-12-06T22:36:29.698Z,90.87
2018-12-06T22:38:58.527Z,90.86
2018-12-06T22:41:27.360Z,91.08
2018-12-06T22:43:56.235Z,91.51
2018-12-06T22:46:25.243Z,91.50
2018-12-06T22:48:54.286Z,91.31
2018-12-06T22:51:25.259Z,91.11
2018-12-06T22:53:54.337Z,91.51
2018-12-06T22:56:23.340Z,91.36
2018-12-06T22:58:52.121Z,91.23
2018-12-06T23:01:25.149Z,91.29
2018-12-06T23:03:53.991Z,91.44
2018-12-06T23:06:23.037Z,91.35
2018-12-06T23:08:51.835Z,91.00
2018-12-06T23:11:21.640Z,91.02
2018-12-06T23:13:52.127Z,91.64
2018-12-06T23:16:20.992Z,91.48
2018-12-06T23:18:49.815Z,91.57
2018-12-06T23:21:19.148Z,91.27
2018-12-06T23:23:48.116Z,91.30
2018-12-06T23:26:16.961Z,91.35
2018-12-06T23:28:45.780Z,91.35
2018-12-06T23:31:15.487Z,91.46
2018-12-06T23:33:47.811Z,91.24
2018-12-06T23:36:16.627Z,91.54
2018-12-06T23:38:45.447Z,91.69
2018-12-06T23:41:14.286Z,91.57
2018-12-06T23:43:43.164Z,91.48
2018-12-06T23:46:12.989Z,91.78
2018-12-06T23:48:41.896Z,91.42
2018-12-06T23:51:22.060Z,91.60
2018-12-06T23:53:50.869Z,91.52
2018-12-06T23:56:19.733Z,91.60
2018-12-06T23:58:48.514Z,91.62
